sensor_id;sensor_type;location;lat;lon;timestamp;temperature;humidity
47114;DHT22;32867;51.556;6.832;2023-06-22T00:03:17;22.70;92.60
47114;DHT22;32867;51.556;6.832;2023-06-22T00:08:18;22.60;93.50
47114;DHT22;32867;51.556;6.832;2023-06-22T00:13:19;22.50;94.50
47114;DHT22;32867;51.556;6.832;2023-06-22T00:18:19;22.50;95.10
47114;DHT22;32867;51.556;6.832;2023-06-22T00:23:20;22.50;95.80
47114;DHT22;32867;51.556;6.832;2023-06-22T00:28:21;22.50;96.30
47114;DHT22;32867;51.556;6.832;2023-06-22T00:33:22;22.50;96.70
47114;DHT22;32867;51.556;6.832;2023-06-22T00:38:22;22.50;97.30
47114;DHT22;32867;51.556;6.832;2023-06-22T00:43:23;22.50;97.60
47114;DHT22;32867;51.556;6.832;2023-06-22T00:48:24;22.50;98.00
47114;DHT22;32867;51.556;6.832;2023-06-22T00:53:25;22.40;98.50
47114;DHT22;32867;51.556;6.832;2023-06-22T00:58:26;22.50;98.70
47114;DHT22;32867;51.556;6.832;2023-06-22T01:03:27;22.40;98.90
47114;DHT22;32867;51.556;6.832;2023-06-22T01:09:00;22.40;99.30
47114;DHT22;32867;51.556;6.832;2023-06-22T01:14:13;22.30;99.90
47114;DHT22;32867;51.556;6.832;2023-06-22T01:19:53;22.20;99.90
47114;DHT22;32867;51.556;6.832;2023-06-22T01:25:13;22.10;99.90
47114;DHT22;32867;51.556;6.832;2023-06-22T01:30:20;22.00;99.90
47114;DHT22;32867;51.556;6.832;2023-06-22T01:35:21;22.00;99.90
47114;DHT22;32867;51.556;6.832;2023-06-22T01:40:23;22.00;99.90
47114;DHT22;32867;51.556;6.832;2023-06-22T01:45:27;21.90;99.90
47114;DHT22;32867;51.556;6.832;2023-06-22T01:50:28;21.90;99.90
47114;DHT22;32867;51.556;6.832;2023-06-22T01:55:30;21.80;99.90
47114;DHT22;32867;51.556;6.832;2023-06-22T02:00:36;21.80;99.90
47114;DHT22;32867;51.556;6.832;2023-06-22T02:05:41;21.70;99.90
47114;DHT22;32867;51.556;6.832;2023-06-22T02:10:45;21.70;99.90
47114;DHT22;32867;51.556;6.832;2023-06-22T02:15:47;21.70;99.90
47114;DHT22;32867;51.556;6.832;2023-06-22T02:20:47;21.60;99.90
47114;DHT22;32867;51.556;6.832;2023-06-22T02:25:48;21.60;99.90
47114;DHT22;32867;51.556;6.832;2023-06-22T02:30:50;21.50;99.90
47114;DHT22;32867;51.556;6.832;2023-06-22T02:35:50;21.60;99.90
47114;DHT22;32867;51.556;6.832;2023-06-22T02:40:51;21.70;99.90
47114;DHT22;32867;51.556;6.832;2023-06-22T02:45:52;21.70;99.90
47114;DHT22;32867;51.556;6.832;2023-06-22T02:50:52;21.60;99.90
47114;DHT22;32867;51.556;6.832;2023-06-22T02:55:54;21.60;99.90
47114;DHT22;32867;51.556;6.832;2023-06-22T03:00:54;21.50;99.90
47114;DHT22;32867;51.556;6.832;2023-06-22T03:05:56;21.50;99.90
47114;DHT22;32867;51.556;6.832;2023-06-22T03:10:59;21.40;99.90
47114;DHT22;32867;51.556;6.832;2023-06-22T03:15:59;21.50;99.90
47114;DHT22;32867;51.556;6.832;2023-06-22T03:21:00;21.40;99.90
47114;DHT22;32867;51.556;6.832;2023-06-22T03:26:02;21.40;99.90
47114;DHT22;32867;51.556;6.832;2023-06-22T03:31:04;21.30;99.90
47114;DHT22;32867;51.556;6.832;2023-06-22T03:36:08;21.20;99.90
47114;DHT22;32867;51.556;6.832;2023-06-22T03:41:09;20.90;99.90
47114;DHT22;32867;51.556;6.832;2023-06-22T03:46:10;21.00;99.90
47114;DHT22;32867;51.556;6.832;2023-06-22T03:51:10;21.10;99.90
47114;DHT22;32867;51.556;6.832;2023-06-22T03:56:11;21.00;99.90
47114;DHT22;32867;51.556;6.832;2023-06-22T04:01:12;21.00;99.90
47114;DHT22;32867;51.556;6.832;2023-06-22T04:06:13;20.90;99.90
47114;DHT22;32867;51.556;6.832;2023-06-22T04:11:13;20.90;99.90
47114;DHT22;32867;51.556;6.832;2023-06-22T04:16:14;21.00;99.90
47114;DHT22;32867;51.556;6.832;2023-06-22T04:21:15;21.00;99.90
47114;DHT22;32867;51.556;6.832;2023-06-22T04:26:15;21.10;99.90
47114;DHT22;32867;51.556;6.832;2023-06-22T04:31:16;21.20;99.90
47114;DHT22;32867;51.556;6.832;2023-06-22T04:36:17;21.40;99.90
47114;DHT22;32867;51.556;6.832;2023-06-22T04:41:18;21.50;99.90
47114;DHT22;32867;51.556;6.832;2023-06-22T04:46:23;21.60;99.90
47114;DHT22;32867;51.556;6.832;2023-06-22T04:51:24;21.40;99.90
47114;DHT22;32867;51.556;6.832;2023-06-22T04:56:31;21.50;99.90
47114;DHT22;32867;51.556;6.832;2023-06-22T05:01:31;21.60;99.90
47114;DHT22;32867;51.556;6.832;2023-06-22T05:06:32;21.80;99.90
47114;DHT22;32867;51.556;6.832;2023-06-22T05:11:33;21.90;99.90
47114;DHT22;32867;51.556;6.832;2023-06-22T05:16:33;21.80;99.90
47114;DHT22;32867;51.556;6.832;2023-06-22T05:21:34;21.60;99.90
47114;DHT22;32867;51.556;6.832;2023-06-22T05:26:35;21.60;99.90
47114;DHT22;32867;51.556;6.832;2023-06-22T05:31:36;21.70;99.90
47114;DHT22;32867;51.556;6.832;2023-06-22T05:36:36;22.00;99.90
47114;DHT22;32867;51.556;6.832;2023-06-22T05:41:37;22.20;99.90
47114;DHT22;32867;51.556;6.832;2023-06-22T05:46:41;22.60;99.90
47114;DHT22;32867;51.556;6.832;2023-06-22T05:51:44;22.50;99.90
47114;DHT22;32867;51.556;6.832;2023-06-22T05:56:45;22.60;99.90
47114;DHT22;32867;51.556;6.832;2023-06-22T06:01:46;22.80;99.90
47114;DHT22;32867;51.556;6.832;2023-06-22T06:06:50;22.90;99.90
47114;DHT22;32867;51.556;6.832;2023-06-22T06:11:51;22.90;99.90
47114;DHT22;32867;51.556;6.832;2023-06-22T06:16:51;22.70;99.90
47114;DHT22;32867;51.556;6.832;2023-06-22T06:21:52;22.50;99.90
47114;DHT22;32867;51.556;6.832;2023-06-22T06:26:52;22.40;99.90
47114;DHT22;32867;51.556;6.832;2023-06-22T06:31:53;22.40;99.90
47114;DHT22;32867;51.556;6.832;2023-06-22T06:36:54;22.50;99.90
47114;DHT22;32867;51.556;6.832;2023-06-22T06:41:54;22.50;99.90
47114;DHT22;32867;51.556;6.832;2023-06-22T06:46:55;22.50;99.90
47114;DHT22;32867;51.556;6.832;2023-06-22T06:51:56;22.40;99.90
47114;DHT22;32867;51.556;6.832;2023-06-22T06:56:56;22.40;99.90
47114;DHT22;32867;51.556;6.832;2023-06-22T07:01:57;22.30;99.90
47114;DHT22;32867;51.556;6.832;2023-06-22T07:07:00;22.20;99.90
47114;DHT22;32867;51.556;6.832;2023-06-22T07:12:01;22.20;99.90
47114;DHT22;32867;51.556;6.832;2023-06-22T07:17:02;22.00;99.90
47114;DHT22;32867;51.556;6.832;2023-06-22T07:22:03;22.00;99.90
47114;DHT22;32867;51.556;6.832;2023-06-22T07:27:04;22.00;99.90
47114;DHT22;32867;51.556;6.832;2023-06-22T07:32:07;22.20;99.90
47114;DHT22;32867;51.556;6.832;2023-06-22T07:37:08;22.30;99.90
47114;DHT22;32867;51.556;6.832;2023-06-22T07:42:09;22.20;99.90
47114;DHT22;32867;51.556;6.832;2023-06-22T07:47:10;22.10;99.90
47114;DHT22;32867;51.556;6.832;2023-06-22T07:52:11;22.10;99.90
47114;DHT22;32867;51.556;6.832;2023-06-22T07:57:11;22.30;99.90
47114;DHT22;32867;51.556;6.832;2023-06-22T08:02:12;22.40;99.90
47114;DHT22;32867;51.556;6.832;2023-06-22T08:07:13;22.60;99.90
47114;DHT22;32867;51.556;6.832;2023-06-22T08:12:14;22.60;99.90
47114;DHT22;32867;51.556;6.832;2023-06-22T08:17:15;22.60;99.90
47114;DHT22;32867;51.556;6.832;2023-06-22T08:22:16;22.80;99.90
47114;DHT22;32867;51.556;6.832;2023-06-22T08:27:17;23.00;99.90
47114;DHT22;32867;51.556;6.832;2023-06-22T08:32:21;23.10;99.90
47114;DHT22;32867;51.556;6.832;2023-06-22T08:37:22;23.30;99.90
47114;DHT22;32867;51.556;6.832;2023-06-22T08:42:25;23.50;99.90
47114;DHT22;32867;51.556;6.832;2023-06-22T08:47:28;23.60;99.90
47114;DHT22;32867;51.556;6.832;2023-06-22T08:52:28;23.50;99.90
47114;DHT22;32867;51.556;6.832;2023-06-22T08:57:29;23.70;99.90
47114;DHT22;32867;51.556;6.832;2023-06-22T09:02:31;23.70;99.90
47114;DHT22;32867;51.556;6.832;2023-06-22T09:07:32;23.70;99.90
47114;DHT22;32867;51.556;6.832;2023-06-22T09:12:34;23.80;99.90
47114;DHT22;32867;51.556;6.832;2023-06-22T09:17:37;23.70;99.90
47114;DHT22;32867;51.556;6.832;2023-06-22T09:22:38;23.80;99.90
47114;DHT22;32867;51.556;6.832;2023-06-22T09:27:39;24.00;99.90
47114;DHT22;32867;51.556;6.832;2023-06-22T09:32:40;24.20;99.90
47114;DHT22;32867;51.556;6.832;2023-06-22T09:37:41;24.00;99.90
47114;DHT22;32867;51.556;6.832;2023-06-22T09:42:41;24.10;99.90
47114;DHT22;32867;51.556;6.832;2023-06-22T09:47:42;24.00;99.90
47114;DHT22;32867;51.556;6.832;2023-06-22T09:52:43;24.10;99.90
47114;DHT22;32867;51.556;6.832;2023-06-22T09:57:46;24.10;99.90
47114;DHT22;32867;51.556;6.832;2023-06-22T10:02:47;24.10;99.90
47114;DHT22;32867;51.556;6.832;2023-06-22T10:07:48;24.30;99.90
47114;DHT22;32867;51.556;6.832;2023-06-22T10:12:56;24.70;99.90
47114;DHT22;32867;51.556;6.832;2023-06-22T10:17:57;25.10;99.90
47114;DHT22;32867;51.556;6.832;2023-06-22T10:22:58;25.90;99.90
47114;DHT22;32867;51.556;6.832;2023-06-22T10:27:59;26.80;99.90
47114;DHT22;32867;51.556;6.832;2023-06-22T10:32:59;27.30;99.90
47114;DHT22;32867;51.556;6.832;2023-06-22T10:38:00;27.60;99.90
47114;DHT22;32867;51.556;6.832;2023-06-22T10:43:01;27.90;99.90
47114;DHT22;32867;51.556;6.832;2023-06-22T10:48:01;28.20;99.90
47114;DHT22;32867;51.556;6.832;2023-06-22T10:53:02;28.10;99.50
47114;DHT22;32867;51.556;6.832;2023-06-22T10:58:03;27.80;99.10
47114;DHT22;32867;51.556;6.832;2023-06-22T11:03:03;27.60;98.70
47114;DHT22;32867;51.556;6.832;2023-06-22T11:08:04;27.30;99.40
47114;DHT22;32867;51.556;6.832;2023-06-22T11:13:05;27.10;99.30
47114;DHT22;32867;51.556;6.832;2023-06-22T11:18:10;26.80;99.90
47114;DHT22;32867;51.556;6.832;2023-06-22T11:23:10;26.70;99.90
47114;DHT22;32867;51.556;6.832;2023-06-22T11:28:13;26.70;99.90
47114;DHT22;32867;51.556;6.832;2023-06-22T11:33:13;26.50;99.90
47114;DHT22;32867;51.556;6.832;2023-06-22T11:38:14;26.40;99.90
47114;DHT22;32867;51.556;6.832;2023-06-22T11:43:14;26.40;99.90
47114;DHT22;32867;51.556;6.832;2023-06-22T11:48:15;26.30;99.90
47114;DHT22;32867;51.556;6.832;2023-06-22T11:53:16;26.10;99.90
47114;DHT22;32867;51.556;6.832;2023-06-22T11:58:18;25.90;99.90
47114;DHT22;32867;51.556;6.832;2023-06-22T12:03:19;25.70;99.90
47114;DHT22;32867;51.556;6.832;2023-06-22T12:08:20;25.50;99.90
47114;DHT22;32867;51.556;6.832;2023-06-22T12:13:20;25.50;99.90
47114;DHT22;32867;51.556;6.832;2023-06-22T12:18:21;25.20;99.90
47114;DHT22;32867;51.556;6.832;2023-06-22T12:23:22;25.20;99.90
47114;DHT22;32867;51.556;6.832;2023-06-22T12:28:22;24.90;99.90
47114;DHT22;32867;51.556;6.832;2023-06-22T12:33:23;24.80;99.90
47114;DHT22;32867;51.556;6.832;2023-06-22T12:38:24;25.10;99.90
47114;DHT22;32867;51.556;6.832;2023-06-22T12:43:26;25.40;99.90
47114;DHT22;32867;51.556;6.832;2023-06-22T12:48:27;26.40;99.90
47114;DHT22;32867;51.556;6.832;2023-06-22T12:53:28;27.10;99.90
47114;DHT22;32867;51.556;6.832;2023-06-22T12:58:29;26.90;99.90
47114;DHT22;32867;51.556;6.832;2023-06-22T13:03:29;26.30;99.90
47114;DHT22;32867;51.556;6.832;2023-06-22T13:08:30;26.00;99.90
47114;DHT22;32867;51.556;6.832;2023-06-22T13:13:31;26.00;99.90
47114;DHT22;32867;51.556;6.832;2023-06-22T13:18:34;25.80;99.90
47114;DHT22;32867;51.556;6.832;2023-06-22T13:23:36;26.10;99.90
47114;DHT22;32867;51.556;6.832;2023-06-22T13:28:36;26.10;99.90
47114;DHT22;32867;51.556;6.832;2023-06-22T13:33:38;25.90;99.90
47114;DHT22;32867;51.556;6.832;2023-06-22T13:38:39;25.70;99.90
47114;DHT22;32867;51.556;6.832;2023-06-22T13:43:39;25.50;99.90
47114;DHT22;32867;51.556;6.832;2023-06-22T13:48:40;25.40;99.90
47114;DHT22;32867;51.556;6.832;2023-06-22T13:53:40;25.20;99.90
47114;DHT22;32867;51.556;6.832;2023-06-22T13:58:41;25.00;99.90
47114;DHT22;32867;51.556;6.832;2023-06-22T14:03:43;25.00;99.90
47114;DHT22;32867;51.556;6.832;2023-06-22T14:08:46;25.00;99.90
47114;DHT22;32867;51.556;6.832;2023-06-22T14:13:46;25.00;99.90
47114;DHT22;32867;51.556;6.832;2023-06-22T14:18:47;24.90;99.90
47114;DHT22;32867;51.556;6.832;2023-06-22T14:23:48;25.20;99.90
47114;DHT22;32867;51.556;6.832;2023-06-22T14:28:49;25.50;99.90
47114;DHT22;32867;51.556;6.832;2023-06-22T14:33:53;25.40;99.90
47114;DHT22;32867;51.556;6.832;2023-06-22T14:38:53;25.50;99.90
47114;DHT22;32867;51.556;6.832;2023-06-22T14:43:54;25.40;99.90
47114;DHT22;32867;51.556;6.832;2023-06-22T14:48:55;25.40;99.90
47114;DHT22;32867;51.556;6.832;2023-06-22T14:53:55;25.30;99.90
47114;DHT22;32867;51.556;6.832;2023-06-22T14:58:56;25.30;99.90
47114;DHT22;32867;51.556;6.832;2023-06-22T15:03:56;25.30;99.90
47114;DHT22;32867;51.556;6.832;2023-06-22T15:08:57;25.10;99.90
47114;DHT22;32867;51.556;6.832;2023-06-22T15:14:01;24.90;99.90
47114;DHT22;32867;51.556;6.832;2023-06-22T15:19:01;24.70;99.90
47114;DHT22;32867;51.556;6.832;2023-06-22T15:24:02;24.70;99.90
47114;DHT22;32867;51.556;6.832;2023-06-22T15:29:03;24.40;99.90
47114;DHT22;32867;51.556;6.832;2023-06-22T15:34:04;24.50;99.90
47114;DHT22;32867;51.556;6.832;2023-06-22T15:39:05;24.60;99.90
47114;DHT22;32867;51.556;6.832;2023-06-22T15:44:06;24.60;99.90
47114;DHT22;32867;51.556;6.832;2023-06-22T15:49:07;24.50;99.90
47114;DHT22;32867;51.556;6.832;2023-06-22T15:54:07;24.50;99.90
47114;DHT22;32867;51.556;6.832;2023-06-22T15:59:08;24.60;99.90
47114;DHT22;32867;51.556;6.832;2023-06-22T16:04:09;24.60;99.90
47114;DHT22;32867;51.556;6.832;2023-06-22T16:09:10;24.30;99.90
47114;DHT22;32867;51.556;6.832;2023-06-22T16:14:10;24.10;99.90
47114;DHT22;32867;51.556;6.832;2023-06-22T16:19:11;23.90;99.90
47114;DHT22;32867;51.556;6.832;2023-06-22T16:24:12;23.90;99.90
47114;DHT22;32867;51.556;6.832;2023-06-22T16:29:12;23.80;99.90
47114;DHT22;32867;51.556;6.832;2023-06-22T16:34:13;23.80;99.90
47114;DHT22;32867;51.556;6.832;2023-06-22T16:39:14;23.70;99.90
47114;DHT22;32867;51.556;6.832;2023-06-22T16:44:15;23.80;99.90
47114;DHT22;32867;51.556;6.832;2023-06-22T16:49:16;23.60;99.90
47114;DHT22;32867;51.556;6.832;2023-06-22T16:54:17;23.40;99.90
47114;DHT22;32867;51.556;6.832;2023-06-22T16:59:19;23.10;99.90
47114;DHT22;32867;51.556;6.832;2023-06-22T17:04:24;22.80;99.90
47114;DHT22;32867;51.556;6.832;2023-06-22T17:09:26;22.50;99.90
47114;DHT22;32867;51.556;6.832;2023-06-22T17:14:29;22.30;99.90
47114;DHT22;32867;51.556;6.832;2023-06-22T17:19:30;22.10;99.90
47114;DHT22;32867;51.556;6.832;2023-06-22T17:24:31;22.10;99.90
47114;DHT22;32867;51.556;6.832;2023-06-22T17:29:32;22.20;99.90
47114;DHT22;32867;51.556;6.832;2023-06-22T17:34:36;22.40;99.90
47114;DHT22;32867;51.556;6.832;2023-06-22T17:39:36;22.40;99.90
47114;DHT22;32867;51.556;6.832;2023-06-22T17:44:37;22.30;99.90
47114;DHT22;32867;51.556;6.832;2023-06-22T17:49:38;22.20;99.90
47114;DHT22;32867;51.556;6.832;2023-06-22T17:54:39;22.20;99.90
47114;DHT22;32867;51.556;6.832;2023-06-22T17:59:40;22.30;99.90
47114;DHT22;32867;51.556;6.832;2023-06-22T18:04:41;21.80;99.90
47114;DHT22;32867;51.556;6.832;2023-06-22T18:09:43;21.00;99.90
47114;DHT22;32867;51.556;6.832;2023-06-22T18:14:44;21.20;99.90
47114;DHT22;32867;51.556;6.832;2023-06-22T18:19:47;21.40;99.90
47114;DHT22;32867;51.556;6.832;2023-06-22T18:24:52;21.70;99.90
47114;DHT22;32867;51.556;6.832;2023-06-22T18:29:54;21.40;99.90
47114;DHT22;32867;51.556;6.832;2023-06-22T18:34:56;21.50;99.90
47114;DHT22;32867;51.556;6.832;2023-06-22T18:39:56;21.40;99.90
47114;DHT22;32867;51.556;6.832;2023-06-22T18:44:58;21.00;99.90
47114;DHT22;32867;51.556;6.832;2023-06-22T18:50:08;20.70;99.90
47114;DHT22;32867;51.556;6.832;2023-06-22T18:55:11;20.10;99.90
47114;DHT22;32867;51.556;6.832;2023-06-22T19:00:14;19.50;99.90
47114;DHT22;32867;51.556;6.832;2023-06-22T19:05:17;19.40;99.90
47114;DHT22;32867;51.556;6.832;2023-06-22T19:10:26;19.50;99.90
47114;DHT22;32867;51.556;6.832;2023-06-22T19:15:30;19.50;99.90
47114;DHT22;32867;51.556;6.832;2023-06-22T19:20:34;19.40;99.90
47114;DHT22;32867;51.556;6.832;2023-06-22T19:25:35;19.20;99.90
47114;DHT22;32867;51.556;6.832;2023-06-22T19:30:36;19.10;99.90
47114;DHT22;32867;51.556;6.832;2023-06-22T19:35:36;18.80;99.90
47114;DHT22;32867;51.556;6.832;2023-06-22T19:40:39;18.50;99.90
47114;DHT22;32867;51.556;6.832;2023-06-22T19:45:41;18.40;99.90
47114;DHT22;32867;51.556;6.832;2023-06-22T19:50:43;18.10;99.90
47114;DHT22;32867;51.556;6.832;2023-06-22T19:55:45;18.10;99.90
47114;DHT22;32867;51.556;6.832;2023-06-22T20:00:47;18.00;99.90
47114;DHT22;32867;51.556;6.832;2023-06-22T20:05:53;17.80;99.90
47114;DHT22;32867;51.556;6.832;2023-06-22T20:10:55;18.10;99.90
47114;DHT22;32867;51.556;6.832;2023-06-22T20:16:08;18.10;99.90
47114;DHT22;32867;51.556;6.832;2023-06-22T20:21:13;18.10;99.90
47114;DHT22;32867;51.556;6.832;2023-06-22T20:26:13;18.10;99.90
47114;DHT22;32867;51.556;6.832;2023-06-22T20:31:17;18.00;99.90
47114;DHT22;32867;51.556;6.832;2023-06-22T20:36:17;17.90;99.90
47114;DHT22;32867;51.556;6.832;2023-06-22T20:41:18;17.90;99.90
47114;DHT22;32867;51.556;6.832;2023-06-22T20:46:19;17.90;99.90
47114;DHT22;32867;51.556;6.832;2023-06-22T20:51:20;18.20;99.90
47114;DHT22;32867;51.556;6.832;2023-06-22T20:56:21;18.20;99.90
47114;DHT22;32867;51.556;6.832;2023-06-22T21:01:21;18.40;99.90
47114;DHT22;32867;51.556;6.832;2023-06-22T21:06:22;18.10;99.90
47114;DHT22;32867;51.556;6.832;2023-06-22T21:11:22;17.90;99.90
47114;DHT22;32867;51.556;6.832;2023-06-22T21:16:23;17.90;99.90
47114;DHT22;32867;51.556;6.832;2023-06-22T21:21:24;17.60;99.90
47114;DHT22;32867;51.556;6.832;2023-06-22T21:26:24;17.50;99.90
47114;DHT22;32867;51.556;6.832;2023-06-22T21:31:25;17.50;99.90
47114;DHT22;32867;51.556;6.832;2023-06-22T21:36:26;17.90;99.90
47114;DHT22;32867;51.556;6.832;2023-06-22T21:41:27;17.50;99.90
47114;DHT22;32867;51.556;6.832;2023-06-22T21:46:27;17.50;99.90
47114;DHT22;32867;51.556;6.832;2023-06-22T21:51:28;17.30;99.90
47114;DHT22;32867;51.556;6.832;2023-06-22T21:56:29;17.50;99.90
47114;DHT22;32867;51.556;6.832;2023-06-22T22:01:29;17.20;99.90
47114;DHT22;32867;51.556;6.832;2023-06-22T22:06:30;17.30;99.90
47114;DHT22;32867;51.556;6.832;2023-06-22T22:11:31;17.50;99.90
47114;DHT22;32867;51.556;6.832;2023-06-22T22:16:31;17.30;99.90
47114;DHT22;32867;51.556;6.832;2023-06-22T22:21:32;17.10;99.90
47114;DHT22;32867;51.556;6.832;2023-06-22T22:26:33;17.20;99.90
47114;DHT22;32867;51.556;6.832;2023-06-22T22:31:35;17.10;99.90
47114;DHT22;32867;51.556;6.832;2023-06-22T22:36:39;17.30;99.90
47114;DHT22;32867;51.556;6.832;2023-06-22T22:41:39;17.10;99.90
47114;DHT22;32867;51.556;6.832;2023-06-22T22:46:41;17.10;99.90
47114;DHT22;32867;51.556;6.832;2023-06-22T22:51:41;16.90;99.90
47114;DHT22;32867;51.556;6.832;2023-06-22T22:56:42;16.80;99.90
47114;DHT22;32867;51.556;6.832;2023-06-22T23:01:43;16.80;99.90
47114;DHT22;32867;51.556;6.832;2023-06-22T23:06:44;16.60;99.90
47114;DHT22;32867;51.556;6.832;2023-06-22T23:11:45;16.60;99.90
47114;DHT22;32867;51.556;6.832;2023-06-22T23:16:47;16.40;99.90
47114;DHT22;32867;51.556;6.832;2023-06-22T23:21:47;16.40;99.90
47114;DHT22;32867;51.556;6.832;2023-06-22T23:26:49;16.50;99.90
47114;DHT22;32867;51.556;6.832;2023-06-22T23:31:52;16.70;99.90
47114;DHT22;32867;51.556;6.832;2023-06-22T23:36:54;16.30;99.90
47114;DHT22;32867;51.556;6.832;2023-06-22T23:41:55;16.40;99.90
47114;DHT22;32867;51.556;6.832;2023-06-22T23:46:57;16.40;99.90
47114;DHT22;32867;51.556;6.832;2023-06-22T23:51:58;16.40;99.90
47114;DHT22;32867;51.556;6.832;2023-06-22T23:56:58;16.30;99.90
